createdAt,value
2023-05-04T00:00:11.734Z,8.97
2023-05-04T00:02:47.245Z,8.95
2023-05-04T00:05:19.725Z,8.95
2023-05-04T00:07:52.288Z,8.96
2023-05-04T00:10:24.618Z,8.94
2023-05-04T00:12:57.215Z,8.92
2023-05-04T00:15:30.804Z,8.89
2023-05-04T00:18:03.163Z,8.88
2023-05-04T00:20:35.409Z,8.82
2023-05-04T00:23:07.627Z,8.80
2023-05-04T00:25:39.841Z,8.79
2023-05-04T00:28:12.098Z,8.80
2023-05-04T00:30:44.619Z,8.75
2023-05-04T00:33:16.969Z,8.73
2023-05-04T00:35:49.157Z,8.72
2023-05-04T00:38:21.681Z,8.73
2023-05-04T00:40:54.046Z,8.69
2023-05-04T00:43:26.988Z,8.68
2023-05-04T00:45:59.794Z,8.68
2023-05-04T00:48:35.911Z,8.69
2023-05-04T00:51:09.601Z,8.66
2023-05-04T00:53:42.945Z,8.61
2023-05-04T00:56:19.128Z,8.56
2023-05-04T00:58:54.746Z,8.51
2023-05-04T01:01:27.110Z,8.53
2023-05-04T01:03:59.821Z,8.52
2023-05-04T01:07:15.199Z,8.51
2023-05-04T01:10:05.665Z,8.49
2023-05-04T01:13:06.616Z,8.49
2023-05-04T01:15:41.514Z,8.49
2023-05-04T01:18:14.031Z,8.49
2023-05-04T01:20:46.492Z,8.47
2023-05-04T01:23:18.745Z,8.40
2023-05-04T01:26:08.540Z,8.40
2023-05-04T01:29:16.815Z,8.32
2023-05-04T01:31:50.474Z,8.27
2023-05-04T01:34:23.463Z,8.24
2023-05-04T01:36:56.219Z,8.25
2023-05-04T01:39:30.263Z,8.25
2023-05-04T01:42:02.750Z,8.22
2023-05-04T01:44:35.298Z,8.21
2023-05-04T01:47:07.818Z,8.28
2023-05-04T01:49:40.850Z,8.24
2023-05-04T01:52:13.384Z,8.25
2023-05-04T01:54:45.623Z,8.21
2023-05-04T01:57:17.997Z,8.23
2023-05-04T01:59:50.458Z,8.22
2023-05-04T02:02:23.603Z,8.26
2023-05-04T02:04:55.985Z,8.24
2023-05-04T02:07:28.424Z,8.24
2023-05-04T02:10:00.993Z,8.22
2023-05-04T02:12:33.461Z,8.18
2023-05-04T02:15:06.546Z,8.21
2023-05-04T02:17:39.023Z,8.15
2023-05-04T02:20:13.283Z,8.10
2023-05-04T02:22:45.928Z,8.13
2023-05-04T02:25:18.344Z,8.09
2023-05-04T02:27:50.658Z,8.04
2023-05-04T02:30:23.091Z,8.09
2023-05-04T02:32:55.961Z,8.09
2023-05-04T02:35:30.540Z,8.08
2023-05-04T02:38:03.733Z,8.07
2023-05-04T02:40:36.035Z,8.05
2023-05-04T02:43:08.546Z,8.04
2023-05-04T02:45:41.034Z,8.00
2023-05-04T02:48:16.663Z,7.96
2023-05-04T02:50:48.935Z,7.90
2023-05-04T02:53:21.289Z,7.95
2023-05-04T02:55:53.639Z,7.95
2023-05-04T02:58:25.901Z,7.90
2023-05-04T03:00:59.371Z,7.89
2023-05-04T03:03:34.842Z,7.93
2023-05-04T03:06:07.457Z,7.91
2023-05-04T03:08:42.774Z,7.90
2023-05-04T03:11:15.170Z,7.91
2023-05-04T03:13:47.510Z,7.91
2023-05-04T03:16:19.834Z,7.86
2023-05-04T03:18:52.100Z,7.87
2023-05-04T03:21:24.725Z,7.85
2023-05-04T03:23:57.301Z,7.85
2023-05-04T03:26:30.099Z,7.84
2023-05-04T03:29:02.516Z,7.80
2023-05-04T03:31:34.977Z,7.73
2023-05-04T03:34:07.498Z,7.70
2023-05-04T03:36:39.839Z,7.71
2023-05-04T03:39:12.820Z,7.71
2023-05-04T03:41:45.185Z,7.72
2023-05-04T03:44:17.558Z,7.73
2023-05-04T03:46:49.880Z,7.75
2023-05-04T03:49:22.478Z,7.71
2023-05-04T03:51:54.882Z,7.72
2023-05-04T03:54:27.160Z,7.69
2023-05-04T03:57:04.636Z,7.68
2023-05-04T03:59:37.043Z,7.66
2023-05-04T04:02:11.628Z,7.68
2023-05-04T04:04:43.890Z,7.70
2023-05-04T04:07:16.186Z,7.70
2023-05-04T04:09:48.622Z,7.72
2023-05-04T04:12:21.265Z,7.77
2023-05-04T04:14:53.526Z,7.78
2023-05-04T04:17:25.939Z,7.81
2023-05-04T04:19:58.332Z,7.81
2023-05-04T04:22:30.853Z,7.82
2023-05-04T04:25:03.729Z,7.86
2023-05-04T04:27:36.905Z,7.87
2023-05-04T04:30:10.277Z,7.89
2023-05-04T04:32:42.731Z,7.89
2023-05-04T04:35:15.305Z,7.89
2023-05-04T04:37:47.861Z,7.92
2023-05-04T04:40:20.203Z,7.95
2023-05-04T04:42:52.788Z,7.87
2023-05-04T04:45:25.065Z,7.91
2023-05-04T04:47:58.061Z,8.00
2023-05-04T04:50:30.663Z,8.07
2023-05-04T04:53:02.895Z,7.99
2023-05-04T04:55:35.133Z,8.04
2023-05-04T04:58:09.130Z,8.09
2023-05-04T05:00:41.328Z,8.13
2023-05-04T05:03:13.797Z,8.14
2023-05-04T05:05:46.193Z,8.17
2023-05-04T05:08:18.492Z,8.24
2023-05-04T05:10:50.808Z,8.26
2023-05-04T05:13:23.422Z,8.23
2023-05-04T05:15:55.932Z,8.26
2023-05-04T05:18:29.605Z,8.34
2023-05-04T05:21:02.089Z,8.41
2023-05-04T05:23:35.825Z,8.51
2023-05-04T05:26:08.230Z,8.58
2023-05-04T05:28:40.584Z,8.64
2023-05-04T05:31:13.013Z,8.70
2023-05-04T05:33:45.414Z,8.80
2023-05-04T05:36:21.690Z,8.85
2023-05-04T05:38:54.079Z,8.86
2023-05-04T05:41:26.445Z,8.88
2023-05-04T05:43:58.975Z,9.03
2023-05-04T05:46:31.289Z,9.21
2023-05-04T05:49:06.214Z,9.38
2023-05-04T05:51:38.599Z,9.51
2023-05-04T05:54:11.021Z,9.54
2023-05-04T05:56:43.295Z,9.57
2023-05-04T05:59:16.208Z,9.68
2023-05-04T06:01:48.483Z,9.83
2023-05-04T06:04:21.021Z,10.00
2023-05-04T06:06:53.924Z,10.10
2023-05-04T06:09:26.193Z,10.20
2023-05-04T06:11:58.824Z,10.22
2023-05-04T06:14:31.099Z,10.31
2023-05-04T06:17:17.900Z,10.43
2023-05-04T06:19:51.564Z,10.59
2023-05-04T06:22:23.764Z,10.65
2023-05-04T06:25:01.512Z,10.56
2023-05-04T06:27:36.194Z,10.57
2023-05-04T06:30:09.381Z,10.68
2023-05-04T06:32:41.713Z,10.77
2023-05-04T06:35:14.069Z,10.90
2023-05-04T06:37:46.607Z,10.90
2023-05-04T06:40:18.936Z,11.03
2023-05-04T06:42:51.089Z,10.96
2023-05-04T06:45:23.266Z,11.06
2023-05-04T06:47:57.657Z,11.18
2023-05-04T06:50:30.790Z,11.30
2023-05-04T06:53:11.032Z,11.41
2023-05-04T06:55:43.145Z,11.55
2023-05-04T06:58:19.257Z,11.74
2023-05-04T07:00:52.168Z,11.92
2023-05-04T07:03:24.489Z,12.01
2023-05-04T07:05:56.842Z,12.13
2023-05-04T07:08:29.047Z,12.27
2023-05-04T07:11:01.440Z,12.37
2023-05-04T07:13:33.769Z,12.54
2023-05-04T07:19:53.812Z,12.68
2023-05-04T07:23:06.649Z,12.75
2023-05-04T07:27:00.504Z,12.92
2023-05-04T07:30:06.117Z,13.14
2023-05-04T07:33:27.556Z,13.46
2023-05-04T07:42:37.706Z,13.83
2023-05-04T07:48:57.633Z,14.25
2023-05-04T07:51:32.326Z,14.27
2023-05-04T07:54:07.873Z,14.61
2023-05-04T07:56:46.842Z,14.74
2023-05-04T07:59:31.018Z,15.25
2023-05-04T08:02:22.529Z,15.79
2023-05-04T08:05:47.933Z,15.89
2023-05-04T08:08:22.680Z,16.10
2023-05-04T08:11:08.448Z,16.35
2023-05-04T08:20:27.883Z,17.92
2023-05-04T08:23:10.042Z,18.12
2023-05-04T08:25:49.872Z,18.62
2023-05-04T08:28:22.661Z,19.26
2023-05-04T08:30:54.973Z,19.56
2023-05-04T08:33:27.475Z,19.75
2023-05-04T08:36:00.653Z,19.69
2023-05-04T08:38:33.022Z,19.30
2023-05-04T08:41:06.197Z,19.19
2023-05-04T08:43:38.835Z,18.68
2023-05-04T08:46:11.842Z,18.64
2023-05-04T08:48:45.166Z,19.28
2023-05-04T08:51:18.331Z,19.66
2023-05-04T08:53:52.142Z,20.04
2023-05-04T08:56:25.453Z,20.50
2023-05-04T08:59:02.168Z,21.10
2023-05-04T09:01:36.860Z,21.51
2023-05-04T09:04:09.398Z,21.83
2023-05-04T09:06:42.272Z,21.84
2023-05-04T09:09:15.134Z,22.89
2023-05-04T09:11:48.118Z,23.08
2023-05-04T09:14:23.394Z,23.90
2023-05-04T09:16:55.734Z,24.04
2023-05-04T09:19:33.681Z,23.90
2023-05-04T09:22:18.417Z,23.43
2023-05-04T09:24:50.868Z,23.49
2023-05-04T09:27:23.392Z,23.60
2023-05-04T09:29:57.694Z,23.31
2023-05-04T09:32:30.794Z,22.64
2023-05-04T09:35:03.586Z,22.49
2023-05-04T09:37:47.472Z,22.28
2023-05-04T09:40:30.611Z,22.09
2023-05-04T09:43:03.418Z,22.09
2023-05-04T09:45:44.249Z,21.88
2023-05-04T09:48:27.294Z,21.46
2023-05-04T09:51:04.376Z,21.51
2023-05-04T09:53:39.576Z,21.34
2023-05-04T09:56:30.221Z,21.44
2023-05-04T09:59:03.192Z,21.30
2023-05-04T10:01:35.744Z,21.72
2023-05-04T10:04:08.433Z,22.43
2023-05-04T10:06:43.583Z,22.59
2023-05-04T10:09:16.829Z,22.73
2023-05-04T10:11:49.807Z,22.92
2023-05-04T10:14:22.788Z,23.14
2023-05-04T10:17:18.677Z,23.55
2023-05-04T10:20:19.729Z,24.09
2023-05-04T10:23:37.360Z,24.52
2023-05-04T10:26:53.913Z,24.93
2023-05-04T10:29:29.507Z,25.10
2023-05-04T10:32:02.220Z,25.09
2023-05-04T10:34:35.833Z,25.05
2023-05-04T10:37:20.638Z,25.11
2023-05-04T10:39:54.683Z,25.55
2023-05-04T10:42:27.008Z,25.64
2023-05-04T10:44:59.667Z,25.82
2023-05-04T10:47:36.067Z,26.26
2023-05-04T10:50:12.436Z,26.10
2023-05-04T10:52:54.150Z,26.28
2023-05-04T10:55:26.675Z,26.63
2023-05-04T10:57:59.431Z,27.01
2023-05-04T11:01:27.553Z,26.70
2023-05-04T11:04:11.976Z,26.59
2023-05-04T11:15:00.589Z,26.71
2023-05-04T11:17:33.397Z,27.60
2023-05-04T11:20:20.124Z,27.86
2023-05-04T11:22:59.509Z,28.37
2023-05-04T11:25:41.375Z,27.99
2023-05-04T11:28:16.703Z,28.36
2023-05-04T11:30:48.885Z,28.17
2023-05-04T11:33:23.996Z,27.94
2023-05-04T11:36:04.621Z,28.00
2023-05-04T11:39:14.108Z,27.38
2023-05-04T11:41:48.023Z,27.79
2023-05-04T11:44:26.471Z,27.72
2023-05-04T16:15:04.384Z,20.94
2023-05-04T16:18:27.964Z,20.75
2023-05-04T16:25:18.074Z,20.47
2023-05-04T16:28:31.523Z,20.42
2023-05-04T18:32:37.239Z,18.51
2023-05-04T19:23:02.416Z,17.10
2023-05-04T19:40:15.795Z,16.73
2023-05-04T19:55:09.763Z,16.51
2023-05-04T20:28:32.726Z,16.18
2023-05-04T21:07:45.423Z,15.45
2023-05-04T21:10:49.330Z,15.45
2023-05-04T21:14:03.054Z,15.36
2023-05-04T21:19:49.215Z,15.05
2023-05-04T21:59:05.016Z,14.05
2023-05-04T22:15:29.513Z,13.84
2023-05-04T22:22:09.402Z,13.70
2023-05-04T22:28:59.343Z,13.61
2023-05-04T22:31:53.709Z,13.61
2023-05-04T22:37:31.094Z,13.59
2023-05-04T22:40:55.176Z,13.59
2023-05-04T22:44:02.994Z,13.47
2023-05-04T22:55:24.015Z,13.29
2023-05-04T23:01:50.929Z,13.12
2023-05-04T23:19:13.090Z,12.96
2023-05-04T23:22:30.896Z,12.99
2023-05-04T23:40:10.780Z,12.65
2023-05-04T23:55:48.097Z,12.68
